createdAt,value
2022-11-27T00:00:57.161Z,6.29
2022-11-27T00:03:58.795Z,6.19
2022-11-27T00:07:00.394Z,6.24
2022-11-27T00:10:01.891Z,6.28
2022-11-27T00:13:03.386Z,6.21
2022-11-27T00:16:06.200Z,6.22
2022-11-27T00:19:08.107Z,6.26
2022-11-27T00:22:09.663Z,6.22
2022-11-27T00:25:11.159Z,6.02
2022-11-27T00:28:12.724Z,6.02
2022-11-27T00:31:17.357Z,5.87
2022-11-27T00:34:19.036Z,5.58
2022-11-27T00:37:20.535Z,5.71
2022-11-27T00:40:22.138Z,5.91
2022-11-27T00:43:23.638Z,5.80
2022-11-27T00:46:30.586Z,5.90
2022-11-27T00:49:32.358Z,5.76
2022-11-27T00:52:34.031Z,5.79
2022-11-27T00:55:35.544Z,5.64
2022-11-27T00:58:37.172Z,5.57
2022-11-27T01:01:41.545Z,5.75
2022-11-27T01:04:46.422Z,5.14
2022-11-27T01:07:48.039Z,5.51
2022-11-27T01:10:55.845Z,5.71
2022-11-27T01:14:00.147Z,5.36
2022-11-27T01:17:02.127Z,5.66
2022-11-27T01:20:04.050Z,5.37
2022-11-27T01:23:06.911Z,5.46
2022-11-27T01:26:10.131Z,5.69
2022-11-27T01:29:12.206Z,5.56
2022-11-27T01:32:13.884Z,5.26
2022-11-27T01:35:15.440Z,5.79
2022-11-27T01:38:16.971Z,5.80
2022-11-27T01:41:21.045Z,5.83
2022-11-27T01:44:25.716Z,5.87
2022-11-27T01:47:32.618Z,5.70
2022-11-27T01:50:39.404Z,5.76
2022-11-27T01:53:41.826Z,5.91
2022-11-27T01:56:46.245Z,5.65
2022-11-27T01:59:49.550Z,5.15
2022-11-27T02:02:51.156Z,5.05
2022-11-27T02:05:52.778Z,5.15
2022-11-27T02:08:55.798Z,5.52
2022-11-27T02:12:15.632Z,5.49
2022-11-27T02:15:26.432Z,5.40
2022-11-27T02:18:51.281Z,5.48
2022-11-27T02:22:06.362Z,5.54
2022-11-27T02:25:31.026Z,5.42
2022-11-27T02:28:38.480Z,5.03
2022-11-27T02:31:58.882Z,5.18
2022-11-27T02:35:00.326Z,5.11
2022-11-27T02:38:07.771Z,5.44
2022-11-27T02:41:31.618Z,5.63
2022-11-27T02:44:40.254Z,5.61
2022-11-27T02:47:45.755Z,5.62
2022-11-27T02:50:50.215Z,5.66
2022-11-27T02:53:56.464Z,5.69
2022-11-27T02:57:02.027Z,5.52
2022-11-27T03:00:04.752Z,5.33
2022-11-27T03:03:10.140Z,5.37
2022-11-27T03:06:19.183Z,5.56
2022-11-27T03:09:27.801Z,5.64
2022-11-27T03:12:29.431Z,5.65
2022-11-27T03:15:51.197Z,5.51
2022-11-27T03:19:13.602Z,5.35
2022-11-27T03:22:16.631Z,5.17
2022-11-27T03:25:18.085Z,4.83
2022-11-27T03:28:19.614Z,5.03
2022-11-27T03:31:23.769Z,4.88
2022-11-27T03:34:26.347Z,4.68
2022-11-27T03:37:28.171Z,4.36
2022-11-27T03:40:38.675Z,4.36
2022-11-27T03:44:06.592Z,4.68
2022-11-27T03:47:17.046Z,4.78
2022-11-27T03:50:52.788Z,4.76
2022-11-27T03:54:05.458Z,4.35
2022-11-27T03:57:20.950Z,4.03
2022-11-27T04:00:22.673Z,4.01
2022-11-27T04:03:26.846Z,3.98
2022-11-27T04:06:28.369Z,3.80
2022-11-27T04:09:29.795Z,4.13
2022-11-27T04:12:31.217Z,4.15
2022-11-27T04:15:32.731Z,4.19
2022-11-27T04:18:34.223Z,4.30
2022-11-27T04:21:35.794Z,4.57
2022-11-27T04:24:37.311Z,4.68
2022-11-27T04:27:38.870Z,4.95
2022-11-27T04:30:40.350Z,4.86
2022-11-27T04:33:41.755Z,4.82
2022-11-27T04:36:43.228Z,4.79
2022-11-27T04:39:44.665Z,4.40
2022-11-27T04:42:46.345Z,4.43
2022-11-27T04:45:47.847Z,4.58
2022-11-27T04:48:49.235Z,4.39
2022-11-27T04:51:50.758Z,4.09
2022-11-27T04:54:56.777Z,4.05
2022-11-27T04:58:01.142Z,4.14
2022-11-27T05:01:02.663Z,4.68
2022-11-27T05:04:04.406Z,4.98
2022-11-27T05:07:05.950Z,4.97
2022-11-27T05:10:08.126Z,4.75
2022-11-27T05:13:09.578Z,4.94
2022-11-27T05:16:11.093Z,4.91
2022-11-27T05:19:14.330Z,5.02
2022-11-27T05:22:15.715Z,4.76
2022-11-27T05:25:17.246Z,4.85
2022-11-27T05:28:25.103Z,4.62
2022-11-27T05:31:28.233Z,4.65
2022-11-27T05:34:29.647Z,4.36
2022-11-27T05:37:31.122Z,4.57
2022-11-27T05:40:32.596Z,4.84
2022-11-27T05:43:34.017Z,4.67
2022-11-27T05:46:35.562Z,4.31
2022-11-27T05:49:37.336Z,4.04
2022-11-27T05:52:39.024Z,4.22
2022-11-27T05:55:40.421Z,4.23
2022-11-27T05:58:43.365Z,4.11
2022-11-27T06:01:44.848Z,4.35
2022-11-27T06:04:46.369Z,4.71
2022-11-27T06:07:47.929Z,4.71
2022-11-27T06:10:50.104Z,4.53
2022-11-27T06:13:51.747Z,4.83
2022-11-27T06:16:53.276Z,4.95
2022-11-27T06:19:54.670Z,4.80
2022-11-27T06:22:57.183Z,4.85
2022-11-27T06:25:58.635Z,5.01
2022-11-27T06:29:01.599Z,5.09
2022-11-27T06:32:03.392Z,4.97
2022-11-27T06:35:05.802Z,4.85
2022-11-27T06:38:07.284Z,4.55
2022-11-27T06:41:10.516Z,4.59
2022-11-27T06:44:11.985Z,4.72
2022-11-27T06:47:13.603Z,4.62
2022-11-27T06:50:15.121Z,4.89
2022-11-27T06:53:16.770Z,5.03
2022-11-27T06:56:20.999Z,4.96
2022-11-27T06:59:22.374Z,4.97
2022-11-27T07:02:23.919Z,5.02
2022-11-27T07:05:25.461Z,5.03
2022-11-27T07:08:27.738Z,4.89
2022-11-27T07:11:30.008Z,4.53
2022-11-27T07:14:31.484Z,4.14
2022-11-27T07:17:32.962Z,3.98
2022-11-27T07:20:34.444Z,4.43
2022-11-27T07:23:36.681Z,4.47
2022-11-27T07:26:39.302Z,4.55
2022-11-27T07:29:40.756Z,4.67
2022-11-27T07:32:42.209Z,4.61
2022-11-27T07:35:43.635Z,4.79
2022-11-27T07:38:45.530Z,4.82
2022-11-27T07:41:46.921Z,4.88
2022-11-27T07:44:48.597Z,5.18
2022-11-27T07:47:50.049Z,5.09
2022-11-27T07:50:51.539Z,4.85
2022-11-27T07:53:53.017Z,4.77
2022-11-27T07:56:54.457Z,5.07
2022-11-27T07:59:55.926Z,5.11
2022-11-27T08:02:59.205Z,4.80
2022-11-27T08:06:00.780Z,5.02
2022-11-27T08:09:02.475Z,5.10
2022-11-27T08:12:05.503Z,5.28
2022-11-27T08:15:07.600Z,5.33
2022-11-27T08:18:09.018Z,5.29
2022-11-27T08:21:10.817Z,5.12
2022-11-27T08:24:12.248Z,4.96
2022-11-27T08:27:14.417Z,4.72
2022-11-27T08:30:16.267Z,4.79
2022-11-27T08:33:17.724Z,5.25
2022-11-27T08:36:19.282Z,5.42
2022-11-27T08:39:20.878Z,5.53
2022-11-27T08:42:22.822Z,5.47
2022-11-27T08:45:24.283Z,5.53
2022-11-27T08:48:28.565Z,5.66
2022-11-27T08:51:30.294Z,5.68
2022-11-27T08:54:32.986Z,5.76
2022-11-27T08:57:34.422Z,5.80
2022-11-27T09:00:36.841Z,6.02
2022-11-27T09:03:38.699Z,6.11
2022-11-27T09:06:41.416Z,6.04
2022-11-27T09:09:46.729Z,6.06
2022-11-27T09:12:52.088Z,6.16
2022-11-27T09:15:53.540Z,6.06
2022-11-27T09:18:55.170Z,5.55
2022-11-27T09:21:56.651Z,5.87
2022-11-27T09:24:58.033Z,6.20
2022-11-27T09:27:59.456Z,6.59
2022-11-27T09:31:02.770Z,7.02
2022-11-27T09:34:05.483Z,7.39
2022-11-27T09:37:07.041Z,7.22
2022-11-27T09:40:14.896Z,6.89
2022-11-27T09:43:18.993Z,6.68
2022-11-27T09:46:31.172Z,6.61
2022-11-27T09:49:40.400Z,6.56
2022-11-27T09:53:25.260Z,6.59
2022-11-27T09:56:26.751Z,6.48
2022-11-27T09:59:41.088Z,6.53
2022-11-27T10:02:43.439Z,6.52
2022-11-27T10:05:58.129Z,6.51
2022-11-27T10:09:12.652Z,6.40
2022-11-27T10:12:58.631Z,6.60
2022-11-27T10:16:20.431Z,6.66
2022-11-27T10:19:29.662Z,6.74
2022-11-27T10:22:39.007Z,6.52
2022-11-27T10:25:46.345Z,6.81
2022-11-27T10:29:04.580Z,6.34
2022-11-27T10:32:46.953Z,6.76
2022-11-27T10:35:36.271Z,6.99
2022-11-27T10:38:40.007Z,6.40
2022-11-27T10:42:07.392Z,6.67
2022-11-27T10:45:46.484Z,6.80
2022-11-27T10:48:47.949Z,6.86
2022-11-27T10:51:49.378Z,6.91
2022-11-27T10:55:00.904Z,6.82
2022-11-27T10:58:18.473Z,7.03
2022-11-27T11:01:22.117Z,7.05
2022-11-27T11:04:39.344Z,6.83
2022-11-27T11:07:40.948Z,6.79
2022-11-27T11:10:49.494Z,6.89
2022-11-27T11:13:51.247Z,7.10
2022-11-27T11:16:54.414Z,6.94
2022-11-27T11:19:55.957Z,6.91
2022-11-27T11:22:57.777Z,7.11
2022-11-27T11:26:04.525Z,7.20
2022-11-27T11:29:33.758Z,7.07
2022-11-27T11:32:39.332Z,7.20
2022-11-27T11:35:41.088Z,6.78
2022-11-27T11:38:46.607Z,6.86
2022-11-27T11:41:48.170Z,7.28
2022-11-27T11:44:55.430Z,7.48
2022-11-27T11:48:23.776Z,7.55
2022-11-27T11:52:08.294Z,7.51
2022-11-27T11:55:19.988Z,7.42
2022-11-27T11:58:36.979Z,7.27
2022-11-27T12:01:54.365Z,7.26
2022-11-27T12:05:08.808Z,7.46
2022-11-27T12:08:45.739Z,7.45
2022-11-27T12:12:28.172Z,7.58
2022-11-27T12:15:37.227Z,7.18
2022-11-27T12:19:37.252Z,7.46
2022-11-27T12:23:06.424Z,6.88
2022-11-27T12:26:25.937Z,7.25
2022-11-27T12:30:04.839Z,7.39
2022-11-27T12:33:48.644Z,7.54
2022-11-27T12:37:13.765Z,7.41
2022-11-27T12:40:44.005Z,7.69
2022-11-27T12:43:56.108Z,7.79
2022-11-27T12:47:40.179Z,7.84
2022-11-27T12:50:48.039Z,7.57
2022-11-27T12:53:55.289Z,7.66
2022-11-27T12:57:03.965Z,7.74
2022-11-27T13:00:13.604Z,7.88
2022-11-27T13:03:17.957Z,7.98
2022-11-27T13:06:23.769Z,7.59
2022-11-27T13:09:43.644Z,7.69
2022-11-27T13:13:05.624Z,7.86
2022-11-27T13:16:12.843Z,7.90
2022-11-27T13:19:30.199Z,7.80
2022-11-27T13:22:35.975Z,7.51
2022-11-27T13:25:45.527Z,7.70
2022-11-27T13:28:54.940Z,7.50
2022-11-27T13:32:00.344Z,7.44
2022-11-27T13:35:18.511Z,7.45
2022-11-27T13:38:24.368Z,7.66
2022-11-27T13:41:33.701Z,7.66
2022-11-27T13:44:41.806Z,7.54
2022-11-27T13:47:44.245Z,7.70
2022-11-27T13:50:46.202Z,7.63
2022-11-27T13:53:47.630Z,7.57
2022-11-27T13:56:49.504Z,7.69
2022-11-27T14:00:12.291Z,7.66
2022-11-27T14:03:28.250Z,7.65
2022-11-27T14:06:31.702Z,7.65
2022-11-27T14:09:54.182Z,7.46
2022-11-27T14:13:08.617Z,7.59
2022-11-27T14:16:35.045Z,7.53
2022-11-27T14:19:57.573Z,7.36
2022-11-27T14:23:11.676Z,7.37
2022-11-27T14:26:15.148Z,7.18
2022-11-27T14:29:20.652Z,7.30
2022-11-27T14:32:22.072Z,7.35
2022-11-27T14:35:26.313Z,7.30
2022-11-27T14:38:29.634Z,7.51
2022-11-27T14:41:31.592Z,7.48
2022-11-27T14:44:33.465Z,7.53
2022-11-27T14:47:35.503Z,7.62
2022-11-27T14:50:36.911Z,7.57
2022-11-27T14:53:39.015Z,7.47
2022-11-27T14:56:43.234Z,7.46
2022-11-27T14:59:44.713Z,7.47
2022-11-27T15:02:52.026Z,7.46
2022-11-27T15:05:58.342Z,7.38
2022-11-27T15:09:29.730Z,7.45
2022-11-27T15:12:34.023Z,7.16
2022-11-27T15:15:52.451Z,7.40
2022-11-27T15:19:03.606Z,7.30
2022-11-27T15:22:05.187Z,7.01
2022-11-27T15:25:27.641Z,6.96
2022-11-27T15:28:35.968Z,7.14
2022-11-27T15:31:38.281Z,7.26
2022-11-27T15:34:39.940Z,7.24
2022-11-27T15:37:42.488Z,6.88
2022-11-27T15:40:43.951Z,6.57
2022-11-27T15:43:45.427Z,7.00
2022-11-27T15:46:47.370Z,7.12
2022-11-27T15:49:48.813Z,7.20
2022-11-27T15:52:50.759Z,6.98
2022-11-27T15:55:53.199Z,6.85
2022-11-27T15:58:54.650Z,6.90
2022-11-27T16:01:57.771Z,6.82
2022-11-27T16:04:59.207Z,6.91
2022-11-27T16:08:01.019Z,7.05
2022-11-27T16:11:05.865Z,7.04
2022-11-27T16:14:07.349Z,6.59
2022-11-27T16:17:08.807Z,6.31
2022-11-27T16:20:10.631Z,6.86
2022-11-27T16:23:12.077Z,7.03
2022-11-27T16:26:14.177Z,6.83
2022-11-27T16:29:15.691Z,6.82
2022-11-27T16:32:17.191Z,6.76
2022-11-27T16:35:18.590Z,6.96
2022-11-27T16:38:20.896Z,6.48
2022-11-27T16:41:23.783Z,6.58
2022-11-27T16:44:27.853Z,6.76
2022-11-27T16:47:33.701Z,6.82
2022-11-27T16:50:35.962Z,6.70
2022-11-27T16:53:42.997Z,6.45
2022-11-27T16:56:44.728Z,6.68
2022-11-27T16:59:50.633Z,6.91
2022-11-27T17:02:53.546Z,7.07
2022-11-27T17:05:54.988Z,7.12
2022-11-27T17:08:58.474Z,6.84
2022-11-27T17:11:59.869Z,6.89
2022-11-27T17:15:02.142Z,6.91
2022-11-27T17:18:04.456Z,6.99
2022-11-27T17:21:08.698Z,6.87
2022-11-27T17:24:15.323Z,6.76
2022-11-27T17:27:18.889Z,6.65
2022-11-27T17:30:20.341Z,6.60
2022-11-27T17:33:21.980Z,6.72
2022-11-27T17:36:24.376Z,6.77
2022-11-27T17:39:25.872Z,6.92
2022-11-27T17:42:27.493Z,7.04
2022-11-27T17:45:29.044Z,6.62
2022-11-27T17:48:30.620Z,6.76
2022-11-27T17:51:33.883Z,6.94
2022-11-27T17:54:35.432Z,6.97
2022-11-27T17:57:37.874Z,6.79
2022-11-27T18:00:39.968Z,6.51
2022-11-27T18:03:42.604Z,6.81
2022-11-27T18:06:44.123Z,7.04
2022-11-27T18:09:45.655Z,7.01
2022-11-27T18:12:48.367Z,7.04
2022-11-27T18:15:49.778Z,6.81
2022-11-27T18:18:51.354Z,6.68
2022-11-27T18:21:52.764Z,6.73
2022-11-27T18:24:54.141Z,6.56
2022-11-27T18:27:57.810Z,6.99
2022-11-27T18:31:04.536Z,7.21
2022-11-27T18:34:06.286Z,7.09
2022-11-27T18:37:08.054Z,6.55
2022-11-27T18:40:09.991Z,6.90
2022-11-27T18:43:11.513Z,7.07
2022-11-27T18:46:15.077Z,7.18
2022-11-27T18:49:16.733Z,7.14
2022-11-27T18:52:18.271Z,6.91
2022-11-27T18:55:20.114Z,6.59
2022-11-27T18:58:22.098Z,6.70
2022-11-27T19:01:30.375Z,6.95
2022-11-27T19:04:35.544Z,7.09
2022-11-27T19:07:37.168Z,7.09
2022-11-27T19:10:38.609Z,7.11
2022-11-27T19:13:41.593Z,7.09
2022-11-27T19:16:46.161Z,7.06
2022-11-27T19:19:55.371Z,7.19
2022-11-27T19:22:56.856Z,7.06
2022-11-27T19:26:04.713Z,6.84
2022-11-27T19:29:09.035Z,7.03
2022-11-27T19:32:10.587Z,6.88
2022-11-27T19:35:12.317Z,7.03
2022-11-27T19:38:13.753Z,7.24
2022-11-27T19:41:17.727Z,7.32
2022-11-27T19:44:19.567Z,7.23
2022-11-27T19:47:22.494Z,7.33
2022-11-27T19:50:23.939Z,7.46
2022-11-27T19:53:26.627Z,7.48
2022-11-27T19:56:30.513Z,7.54
2022-11-27T19:59:32.083Z,7.51
2022-11-27T20:02:36.328Z,7.48
2022-11-27T20:05:37.781Z,7.43
2022-11-27T20:08:41.793Z,7.58
2022-11-27T20:11:43.406Z,7.33
2022-11-27T20:14:44.860Z,7.40
2022-11-27T20:17:46.565Z,7.34
2022-11-27T20:20:48.287Z,7.41
2022-11-27T20:23:51.759Z,7.41
2022-11-27T20:26:53.359Z,7.22
2022-11-27T20:29:56.287Z,7.21
2022-11-27T20:32:59.369Z,7.11
2022-11-27T20:36:02.569Z,7.12
2022-11-27T20:39:04.338Z,7.26
2022-11-27T20:42:05.825Z,7.25
2022-11-27T20:45:08.308Z,6.90
2022-11-27T20:48:10.660Z,7.00
2022-11-27T20:51:16.728Z,6.98
2022-11-27T20:54:18.632Z,6.89
2022-11-27T20:57:20.603Z,7.06
2022-11-27T21:00:22.807Z,7.25
2022-11-27T21:03:24.329Z,7.22
2022-11-27T21:06:28.786Z,7.18
2022-11-27T21:09:30.282Z,7.09
2022-11-27T21:12:32.083Z,7.13
2022-11-27T21:15:33.535Z,7.15
2022-11-27T21:18:35.096Z,7.14
2022-11-27T21:21:38.830Z,7.09
2022-11-27T21:24:40.243Z,6.94
2022-11-27T21:27:42.416Z,7.09
2022-11-27T21:30:44.260Z,7.12
2022-11-27T21:33:47.558Z,6.96
2022-11-27T21:36:49.319Z,6.56
2022-11-27T21:39:51.763Z,6.87
2022-11-27T21:42:53.773Z,7.05
2022-11-27T21:45:55.286Z,7.04
2022-11-27T21:48:59.372Z,6.72
2022-11-27T21:52:00.847Z,6.85
2022-11-27T21:55:11.793Z,6.93
2022-11-27T21:58:13.943Z,6.94
2022-11-27T22:01:18.156Z,6.94
2022-11-27T22:04:19.769Z,6.54
2022-11-27T22:07:21.214Z,6.45
2022-11-27T22:10:23.188Z,6.63
2022-11-27T22:13:24.963Z,6.94
2022-11-27T22:16:29.109Z,6.85
2022-11-27T22:19:31.103Z,6.83
2022-11-27T22:22:32.558Z,6.97
2022-11-27T22:25:34.127Z,6.97
2022-11-27T22:28:37.066Z,6.90
2022-11-27T22:31:38.530Z,6.98
2022-11-27T22:34:40.086Z,7.06
2022-11-27T22:37:41.767Z,7.10
2022-11-27T22:40:44.024Z,6.96
2022-11-27T22:43:45.813Z,6.98
2022-11-27T22:46:47.571Z,7.03
2022-11-27T22:49:49.078Z,6.99
2022-11-27T22:52:53.538Z,6.98
2022-11-27T22:56:02.607Z,7.03
2022-11-27T22:59:31.234Z,7.03
2022-11-27T23:02:27.548Z,7.05
2022-11-27T23:05:29.025Z,7.09
2022-11-27T23:08:30.428Z,7.09
2022-11-27T23:11:31.844Z,6.99
2022-11-27T23:14:33.625Z,6.84
2022-11-27T23:17:35.079Z,6.86
2022-11-27T23:20:42.372Z,6.86
2022-11-27T23:23:44.395Z,6.73
2022-11-27T23:26:46.049Z,6.79
2022-11-27T23:29:47.486Z,6.81
2022-11-27T23:32:48.941Z,6.82
2022-11-27T23:35:57.554Z,6.90
2022-11-27T23:39:00.921Z,6.85
2022-11-27T23:42:02.383Z,6.72
2022-11-27T23:45:04.280Z,6.59
2022-11-27T23:48:05.787Z,6.64
2022-11-27T23:51:12.429Z,6.65
2022-11-27T23:54:13.900Z,6.76
2022-11-27T23:57:15.353Z,6.67
